createdAt,value
2023-04-10T00:00:30.915Z,101823.72
2023-04-10T00:03:00.298Z,101829.31
2023-04-10T00:05:28.432Z,101827.69
2023-04-10T00:07:56.461Z,101822.22
2023-04-10T00:10:26.472Z,101819.47
2023-04-10T00:12:56.022Z,101815.97
2023-04-10T00:15:24.210Z,101811.47
2023-04-10T00:17:55.426Z,101813.34
2023-04-10T00:20:23.783Z,101803.47
2023-04-10T00:22:51.721Z,101799.03
2023-04-10T00:25:19.704Z,101805.59
2023-04-10T00:27:48.872Z,101795.63
2023-04-10T00:30:19.139Z,101792.22
2023-04-10T00:32:47.071Z,101791.38
2023-04-10T00:35:15.588Z,101792.22
2023-04-10T00:37:43.421Z,101793.22
2023-04-10T00:40:12.350Z,101795.09
2023-04-10T00:42:40.874Z,101781.41
2023-04-10T00:45:12.122Z,101778.53
2023-04-10T00:47:40.901Z,101776.81
2023-04-10T00:50:09.984Z,101775.78
2023-04-10T00:52:37.955Z,101776.81
2023-04-10T00:55:07.240Z,101783.16
2023-04-10T00:57:35.288Z,101781.41
2023-04-10T01:00:06.756Z,101773.06
2023-04-10T01:02:36.522Z,101766.84
2023-04-10T01:05:07.326Z,101760.81
2023-04-10T01:07:51.119Z,101764.22
2023-04-10T01:10:26.567Z,101765.31
2023-04-10T01:13:05.927Z,101766.19
2023-04-10T01:15:43.497Z,101762.66
2023-04-10T01:18:20.487Z,101754.59
2023-04-10T01:20:48.375Z,101753.06
2023-04-10T01:23:52.370Z,101752.38
2023-04-10T01:26:40.797Z,101742.47
2023-04-10T01:29:15.769Z,101745.41
2023-04-10T01:31:50.464Z,101750.00
2023-04-10T01:34:22.013Z,101745.59
2023-04-10T01:36:54.607Z,101742.13
2023-04-10T01:39:23.640Z,101731.50
2023-04-10T01:41:53.718Z,101730.53
2023-04-10T01:44:31.160Z,101736.09
2023-04-10T01:47:00.845Z,101723.53
2023-04-10T01:49:30.010Z,101725.41
2023-04-10T01:52:06.941Z,101715.53
2023-04-10T01:54:36.278Z,101714.78
2023-04-10T01:57:06.406Z,101714.78
2023-04-10T01:59:46.257Z,101710.28
2023-04-10T02:02:14.783Z,101710.38
2023-04-10T02:04:42.648Z,101706.66
2023-04-10T02:07:15.115Z,101707.53
2023-04-10T02:09:49.201Z,101702.19
2023-04-10T02:12:19.570Z,101705.94
2023-04-10T02:14:51.423Z,101710.38
2023-04-10T02:17:24.442Z,101706.03
2023-04-10T02:19:55.338Z,101695.84
2023-04-10T02:22:25.612Z,101685.91
2023-04-10T02:24:53.771Z,101697.06
2023-04-10T02:27:29.720Z,101693.34
2023-04-10T02:29:59.149Z,101700.00
2023-04-10T02:32:27.853Z,101699.25
2023-04-10T02:34:56.420Z,101710.41
2023-04-10T02:37:24.305Z,101712.16
2023-04-10T02:39:54.587Z,101701.31
2023-04-10T02:42:24.625Z,101703.28
2023-04-10T02:44:54.702Z,101694.97
2023-04-10T02:47:24.964Z,101701.31
2023-04-10T02:49:52.958Z,101694.97
2023-04-10T02:52:21.461Z,101691.47
2023-04-10T02:54:49.333Z,101691.47
2023-04-10T02:57:17.504Z,101688.88
2023-04-10T02:59:45.603Z,101691.59
2023-04-10T03:02:13.789Z,101686.13
2023-04-10T03:04:43.396Z,101684.25
2023-04-10T03:07:11.458Z,101688.09
2023-04-10T03:09:40.276Z,101680.00
2023-04-10T03:12:08.090Z,101686.53
2023-04-10T03:14:35.872Z,101672.00
2023-04-10T03:17:03.855Z,101669.50
2023-04-10T03:19:32.712Z,101668.94
2023-04-10T03:22:02.259Z,101658.78
2023-04-10T03:24:30.366Z,101652.88
2023-04-10T03:26:58.633Z,101656.50
2023-04-10T03:29:26.490Z,101649.38
2023-04-10T03:31:57.459Z,101642.06
2023-04-10T03:34:26.702Z,101641.28
2023-04-10T03:36:54.481Z,101642.16
2023-04-10T03:39:24.670Z,101630.25
2023-04-10T03:41:52.522Z,101632.09
2023-04-10T03:44:20.388Z,101635.72
2023-04-10T03:46:48.305Z,101627.63
2023-04-10T03:49:16.650Z,101631.22
2023-04-10T03:51:44.625Z,101625.88
2023-04-10T03:54:12.486Z,101623.13
2023-04-10T03:56:41.668Z,101625.00
2023-04-10T03:59:09.524Z,101625.13
2023-04-10T04:01:41.103Z,101618.00
2023-04-10T04:04:11.977Z,101627.19
2023-04-10T04:07:10.293Z,101628.25
2023-04-10T04:09:51.674Z,101628.41
2023-04-10T04:12:27.405Z,101621.81
2023-04-10T04:15:10.780Z,101615.63
2023-04-10T04:17:47.936Z,101622.06
2023-04-10T04:20:39.128Z,101615.72
2023-04-10T04:23:17.705Z,101616.59
2023-04-10T04:26:04.059Z,101625.78
2023-04-10T04:28:56.139Z,101613.97
2023-04-10T04:31:41.796Z,101619.44
2023-04-10T04:34:27.726Z,101610.31
2023-04-10T04:37:27.625Z,101606.72
2023-04-10T04:40:15.829Z,101600.38
2023-04-10T04:43:02.073Z,101595.88
2023-04-10T04:45:49.874Z,101599.50
2023-04-10T04:48:32.296Z,101601.47
2023-04-10T04:51:26.149Z,101592.53
2023-04-10T04:54:16.728Z,101607.16
2023-04-10T04:57:16.966Z,101607.25
2023-04-10T05:00:07.673Z,101610.75
2023-04-10T05:02:55.847Z,101609.88
2023-04-10T05:05:29.613Z,101599.06
2023-04-10T05:08:35.927Z,101609.22
2023-04-10T05:11:24.121Z,101609.31
2023-04-10T05:14:15.412Z,101601.03
2023-04-10T05:17:01.051Z,101605.59
2023-04-10T05:19:50.012Z,101610.88
2023-04-10T05:22:40.533Z,101609.09
2023-04-10T05:25:17.232Z,101610.75
2023-04-10T05:28:02.386Z,101612.63
2023-04-10T05:30:57.995Z,101608.91
2023-04-10T05:33:46.020Z,101612.38
2023-04-10T05:36:28.409Z,101618.50
2023-04-10T05:39:10.081Z,101621.25
2023-04-10T05:42:00.917Z,101616.59
2023-04-10T05:44:49.029Z,101624.56
2023-04-10T05:47:38.865Z,101618.09
2023-04-10T05:50:22.990Z,101612.44
2023-04-10T05:53:00.401Z,101610.25
2023-04-10T05:56:02.032Z,101609.25
2023-04-10T05:58:46.690Z,101609.78
2023-04-10T06:01:41.156Z,101606.75
2023-04-10T06:04:09.422Z,101604.53
2023-04-10T06:06:38.462Z,101603.34
2023-04-10T06:09:07.998Z,101611.09
2023-04-10T06:11:36.122Z,101599.97
2023-04-10T06:14:04.152Z,101601.25
2023-04-10T06:16:39.132Z,101586.25
2023-04-10T06:19:07.576Z,101596.63
2023-04-10T06:21:37.080Z,101593.31
2023-04-10T06:24:05.514Z,101583.81
2023-04-10T06:26:34.837Z,101586.94
2023-04-10T06:29:04.377Z,101595.56
2023-04-10T06:31:34.665Z,101587.66
2023-04-10T06:34:04.237Z,101593.53
2023-04-10T06:36:32.986Z,101595.94
2023-04-10T06:39:04.794Z,101599.13
2023-04-10T06:41:34.072Z,101595.69
2023-04-10T06:44:14.446Z,101591.47
2023-04-10T06:46:42.372Z,101592.75
2023-04-10T06:49:10.186Z,101590.06
2023-04-10T06:51:38.120Z,101586.75
2023-04-10T06:54:05.961Z,101581.88
2023-04-10T06:56:35.172Z,101591.03
2023-04-10T06:59:03.260Z,101588.78
2023-04-10T07:01:31.243Z,101589.19
2023-04-10T07:03:59.089Z,101584.81
2023-04-10T07:06:27.577Z,101582.59
2023-04-10T07:08:55.679Z,101572.91
2023-04-10T07:11:23.786Z,101586.00
2023-04-10T07:13:53.905Z,101570.66
2023-04-10T07:16:21.878Z,101564.72
2023-04-10T07:18:49.756Z,101563.22
2023-04-10T07:21:17.681Z,101556.00
2023-04-10T07:23:45.485Z,101557.09
2023-04-10T07:26:13.421Z,101557.34
2023-04-10T07:28:41.302Z,101556.72
2023-04-10T07:31:11.035Z,101558.81
2023-04-10T07:33:39.067Z,101558.31
2023-04-10T07:36:07.812Z,101558.03
2023-04-10T07:38:35.730Z,101550.56
2023-04-10T07:41:03.609Z,101547.56
2023-04-10T07:43:31.625Z,101555.66
2023-04-10T07:45:59.538Z,101544.56
2023-04-10T07:48:28.818Z,101532.56
2023-04-10T07:50:56.906Z,101530.72
2023-04-10T07:53:25.499Z,101533.31
2023-04-10T07:55:54.071Z,101523.22
2023-04-10T07:58:22.748Z,101523.81
2023-04-10T08:00:51.514Z,101531.06
2023-04-10T08:03:19.970Z,101527.31
2023-04-10T08:05:49.408Z,101514.03
2023-04-10T08:08:17.659Z,101503.81
2023-04-10T08:10:45.503Z,101520.03
2023-04-10T08:13:13.365Z,101505.91
2023-04-10T08:15:41.426Z,101503.66
2023-04-10T08:18:09.242Z,101520.75
2023-04-10T08:20:37.311Z,101498.53
2023-04-10T08:25:40.964Z,101496.00
2023-04-10T08:28:08.793Z,101498.47
2023-04-10T08:30:36.658Z,101494.56
2023-04-10T08:33:04.693Z,101486.94
2023-04-10T08:35:32.641Z,101483.91
2023-04-10T08:38:12.740Z,101473.66
2023-04-10T08:40:44.720Z,101468.91
2023-04-10T08:43:12.744Z,101467.78
2023-04-10T08:45:41.868Z,101483.13
2023-04-10T08:48:13.003Z,101457.38
2023-04-10T08:50:43.325Z,101451.63
2023-04-10T08:53:13.262Z,101447.88
2023-04-10T08:55:43.162Z,101435.88
2023-04-10T08:58:13.672Z,101442.38
2023-04-10T09:00:41.608Z,101436.00
2023-04-10T09:03:11.802Z,101439.50
2023-04-10T09:05:40.006Z,101430.38
2023-04-10T09:08:09.243Z,101418.34
2023-04-10T09:10:37.033Z,101425.59
2023-04-10T09:13:06.343Z,101430.84
2023-04-10T09:15:57.157Z,101433.59
2023-04-10T09:18:42.358Z,101435.78
2023-04-10T09:21:11.226Z,101435.25
2023-04-10T09:23:39.340Z,101436.69
2023-04-10T09:26:24.211Z,101442.38
2023-04-10T09:29:01.266Z,101445.31
2023-04-10T09:31:34.313Z,101445.63
2023-04-10T09:34:09.783Z,101439.28
2023-04-10T09:36:38.120Z,101450.91
2023-04-10T09:39:06.377Z,101454.84
2023-04-10T09:41:34.519Z,101440.66
2023-04-10T09:44:11.830Z,101414.19
2023-04-10T09:46:39.840Z,101406.81
2023-04-10T09:49:07.812Z,101409.16
2023-04-10T09:51:37.242Z,101415.06
2023-04-10T09:54:05.469Z,101420.44
2023-04-10T09:56:39.179Z,101413.50
2023-04-10T09:59:09.493Z,101403.34
2023-04-10T10:01:41.163Z,101399.31
2023-04-10T10:04:09.268Z,101413.94
2023-04-10T10:06:40.200Z,101390.47
2023-04-10T10:09:08.483Z,101384.97
2023-04-10T10:11:37.207Z,101379.00
2023-04-10T10:14:14.104Z,101380.34
2023-04-10T10:16:46.811Z,101379.88
2023-04-10T10:19:20.560Z,101369.59
2023-04-10T10:21:48.735Z,101367.41
2023-04-10T10:24:17.936Z,101358.13
2023-04-10T10:26:48.368Z,101352.75
2023-04-10T10:29:18.549Z,101345.66
2023-04-10T10:31:48.033Z,101342.50
2023-04-10T10:34:17.308Z,101336.38
2023-04-10T10:36:45.120Z,101321.44
2023-04-10T10:39:29.743Z,101323.59
2023-04-10T10:42:06.724Z,101315.88
2023-04-10T10:44:44.008Z,101310.81
2023-04-10T10:47:16.979Z,101292.22
2023-04-10T10:49:57.734Z,101290.34
2023-04-10T10:52:44.993Z,101281.03
2023-04-10T10:55:32.596Z,101280.88
2023-04-10T10:58:02.291Z,101271.47
2023-04-10T11:01:03.437Z,101263.91
2023-04-10T11:03:32.773Z,101254.63
2023-04-10T11:06:03.011Z,101252.41
2023-04-10T11:08:46.064Z,101265.03
2023-04-10T11:11:17.175Z,101248.50
2023-04-10T11:14:18.071Z,101242.66
2023-04-10T11:16:48.567Z,101228.88
2023-04-10T11:19:23.632Z,101232.19
2023-04-10T11:22:05.957Z,101230.88
2023-04-10T11:24:57.420Z,101242.06
2023-04-10T11:27:49.600Z,101222.75
2023-04-10T11:30:28.072Z,101225.19
2023-04-10T11:32:56.538Z,101215.59
2023-04-10T11:35:27.143Z,101206.84
2023-04-10T11:38:09.773Z,101210.31
2023-04-10T11:40:54.519Z,101208.44
2023-04-10T11:43:22.493Z,101200.88
2023-04-10T11:45:50.361Z,101198.66
2023-04-10T11:48:18.338Z,101198.50
2023-04-10T11:50:47.636Z,101187.19
2023-04-10T11:53:22.514Z,101176.00
2023-04-10T11:55:50.717Z,101177.03
2023-04-10T11:58:26.113Z,101181.22
2023-04-10T12:00:58.227Z,101171.03
2023-04-10T12:03:34.279Z,101172.06
2023-04-10T12:06:03.838Z,101162.63
2023-04-10T12:08:32.482Z,101168.13
2023-04-10T12:11:01.239Z,101162.47
2023-04-10T12:13:30.560Z,101154.03
2023-04-10T12:16:01.459Z,101148.19
2023-04-10T12:18:30.742Z,101139.03
2023-04-10T12:20:59.650Z,101140.78
2023-04-10T12:23:30.038Z,101142.50
2023-04-10T12:26:12.578Z,101134.09
2023-04-10T12:28:42.321Z,101115.97
2023-04-10T12:31:10.339Z,101136.84
2023-04-10T12:33:38.553Z,101149.63
2023-04-10T12:36:06.849Z,101136.53
2023-04-10T12:38:41.098Z,101124.28
2023-04-10T12:41:11.169Z,101108.78
2023-04-10T12:43:40.818Z,101099.47
2023-04-10T12:46:10.695Z,101103.97
2023-04-10T12:48:38.569Z,101096.56
2023-04-10T12:51:06.736Z,101084.34
2023-04-10T12:53:45.853Z,101091.41
2023-04-10T12:56:14.510Z,101091.59
2023-04-10T12:58:42.680Z,101087.78
2023-04-10T13:01:11.166Z,101081.09
2023-04-10T13:03:39.508Z,101068.00
2023-04-10T13:06:08.229Z,101072.34
2023-04-10T13:08:36.408Z,101062.84
2023-04-10T13:11:07.151Z,101063.25
2023-04-10T13:13:35.516Z,101065.84
2023-04-10T13:16:03.393Z,101064.47
2023-04-10T13:18:31.225Z,101067.06
2023-04-10T13:20:59.041Z,101059.31
2023-04-10T13:23:26.971Z,101046.22
2023-04-10T13:25:56.758Z,101038.66
2023-04-10T13:28:26.088Z,101035.38
2023-04-10T13:30:53.950Z,101029.88
2023-04-10T13:33:22.299Z,101034.19
2023-04-10T13:35:50.399Z,101010.06
2023-04-10T13:38:20.046Z,101009.03
2023-04-10T13:40:49.380Z,101005.06
2023-04-10T13:43:17.150Z,101009.56
2023-04-10T13:45:46.363Z,100992.66
2023-04-10T13:48:17.639Z,100981.78
2023-04-10T13:50:46.792Z,100975.41
2023-04-10T13:53:14.648Z,100969.56
2023-04-10T13:55:43.823Z,100952.13
2023-04-10T13:58:13.305Z,100964.53
2023-04-10T14:00:41.352Z,100961.78
2023-04-10T14:03:12.275Z,100949.53
2023-04-10T14:05:40.526Z,100956.97
2023-04-10T14:08:11.615Z,100943.00
2023-04-10T14:10:40.441Z,100948.34
2023-04-10T14:13:09.082Z,100968.38
2023-04-10T14:15:36.994Z,100948.03
2023-04-10T14:18:04.851Z,100931.13
2023-04-10T14:20:34.307Z,100933.56
2023-04-10T14:23:02.087Z,100917.88
2023-04-10T14:25:30.000Z,100917.66
2023-04-10T14:27:57.807Z,100918.38
2023-04-10T14:30:28.973Z,100913.56
2023-04-10T14:32:56.823Z,100910.44
2023-04-10T14:35:25.265Z,100903.88
2023-04-10T14:37:55.573Z,100904.41
2023-04-10T14:40:23.395Z,100886.81
2023-04-10T14:42:51.657Z,100877.50
2023-04-10T14:45:19.816Z,100877.13
2023-04-10T14:47:48.198Z,100874.19
2023-04-10T14:50:17.339Z,100867.63
2023-04-10T14:52:45.093Z,100870.22
2023-04-10T14:55:14.275Z,100865.41
2023-04-10T14:57:42.047Z,100872.63
2023-04-10T15:00:11.228Z,100877.13
2023-04-10T15:02:39.555Z,100875.38
2023-04-10T15:05:08.195Z,100873.50
2023-04-10T15:07:36.028Z,100878.16
2023-04-10T15:10:03.962Z,100863.50
2023-04-10T15:12:33.574Z,100845.88
2023-04-10T15:15:01.456Z,100861.78
2023-04-10T15:17:29.858Z,100849.88
2023-04-10T15:19:57.742Z,100847.97
2023-04-10T15:22:26.847Z,100852.78
2023-04-10T15:24:54.607Z,100843.47
2023-04-10T15:27:22.554Z,100847.28
2023-04-10T15:29:51.855Z,100843.47
2023-04-10T15:32:19.733Z,100840.19
2023-04-10T15:34:47.571Z,100842.94
2023-04-10T15:37:15.587Z,100823.78
2023-04-10T15:39:43.417Z,100826.53
2023-04-10T15:42:11.269Z,100830.53
2023-04-10T15:44:39.662Z,100824.13
2023-04-10T15:47:08.904Z,100827.75
2023-04-10T15:49:38.673Z,100827.06
2023-04-10T15:52:07.286Z,100815.16
2023-04-10T15:54:35.757Z,100826.38
2023-04-10T15:57:05.009Z,100818.09
2023-04-10T15:59:34.354Z,100806.34
2023-04-10T16:02:02.353Z,100804.81
2023-04-10T16:04:31.917Z,100792.72
2023-04-10T16:06:59.833Z,100805.16
2023-04-10T16:09:27.670Z,100807.03
2023-04-10T16:11:56.126Z,100826.53
2023-04-10T16:14:24.131Z,100808.44
2023-04-10T16:16:52.120Z,100820.50
2023-04-10T16:19:20.020Z,100824.31
2023-04-10T16:21:50.164Z,100827.06
2023-04-10T16:24:17.999Z,100842.25
2023-04-10T16:26:45.775Z,100848.63
2023-04-10T16:29:13.633Z,100839.63
2023-04-10T16:31:41.486Z,100832.56
2023-04-10T16:34:09.357Z,100841.16
2023-04-10T16:36:37.222Z,100829.63
2023-04-10T16:39:07.394Z,100817.00
2023-04-10T16:41:36.407Z,100775.44
2023-04-10T16:44:04.401Z,100747.47
2023-04-10T16:46:33.197Z,100716.78
2023-04-10T16:49:01.692Z,100701.78
2023-04-10T16:51:29.700Z,100694.16
2023-04-10T16:53:57.547Z,100687.78
2023-04-10T16:56:27.023Z,100692.78
2023-04-10T16:58:55.124Z,100697.44
2023-04-10T17:01:26.169Z,100705.19
2023-04-10T17:03:54.895Z,100720.53
2023-04-10T17:06:23.147Z,100706.56
2023-04-10T17:08:51.069Z,100714.44
2023-04-10T17:11:18.906Z,100714.78
2023-04-10T17:13:48.126Z,100693.06
2023-04-10T17:16:16.063Z,100688.91
2023-04-10T17:18:44.148Z,100661.69
2023-04-10T17:21:12.514Z,100659.25
2023-04-10T17:23:40.658Z,100651.50
2023-04-10T17:26:13.914Z,100657.88
2023-04-10T17:28:44.412Z,100643.06
2023-04-10T17:31:14.426Z,100644.06
2023-04-10T17:33:42.827Z,100641.81
2023-04-10T17:36:12.394Z,100649.41
2023-04-10T17:38:40.974Z,100635.09
2023-04-10T17:41:09.572Z,100651.78
2023-04-10T17:43:37.366Z,100643.88
2023-04-10T17:46:05.391Z,100656.09
2023-04-10T17:48:34.731Z,100664.34
2023-04-10T17:51:06.266Z,100665.53
2023-04-10T17:53:34.142Z,100667.78
2023-04-10T17:56:02.049Z,100679.81
2023-04-10T17:58:30.008Z,100685.50
2023-04-10T18:00:57.850Z,100683.06
2023-04-10T18:03:26.129Z,100686.88
2023-04-10T18:05:55.719Z,100685.16
2023-04-10T18:08:23.566Z,100682.72
2023-04-10T18:10:51.388Z,100668.06
2023-04-10T18:13:19.589Z,100665.63
2023-04-10T18:15:47.430Z,100669.44
2023-04-10T18:18:15.422Z,100677.00
2023-04-10T18:20:43.275Z,100680.78
2023-04-10T18:23:12.551Z,100685.44
2023-04-10T18:25:40.779Z,100681.09
2023-04-10T18:28:15.290Z,100688.69
2023-04-10T18:30:44.363Z,100696.25
2023-04-10T18:33:12.719Z,100699.16
2023-04-10T18:35:40.817Z,100683.66
2023-04-10T18:38:08.702Z,100680.19
2023-04-10T18:40:37.894Z,100678.31
2023-04-10T18:43:05.753Z,100674.19
2023-04-10T18:45:34.959Z,100686.22
2023-04-10T18:48:02.884Z,100704.75
2023-04-10T18:50:31.627Z,100711.28
2023-04-10T18:52:59.429Z,100728.16
2023-04-10T18:55:27.395Z,100725.53
2023-04-10T18:57:56.586Z,100701.78
2023-04-10T19:00:24.483Z,100701.44
2023-04-10T19:02:52.468Z,100708.13
2023-04-10T19:05:20.409Z,100714.78
2023-04-10T19:08:00.864Z,100720.66
2023-04-10T19:10:31.777Z,100723.88
2023-04-10T19:13:00.945Z,100725.75
2023-04-10T19:15:28.894Z,100726.25
2023-04-10T19:17:56.955Z,100730.19
2023-04-10T19:20:52.151Z,100727.72
2023-04-10T19:23:13.161Z,100745.59
2023-04-10T19:25:41.110Z,100754.03
2023-04-10T19:28:10.435Z,100755.19
2023-04-10T19:30:38.403Z,100756.69
2023-04-10T19:33:06.361Z,100754.25
2023-04-10T19:35:34.287Z,100756.47
2023-04-10T19:38:02.166Z,100746.66
2023-04-10T19:40:32.159Z,100750.59
2023-04-10T19:43:01.901Z,100760.19
2023-04-10T19:45:32.433Z,100753.81
2023-04-10T19:48:00.685Z,100758.22
2023-04-10T19:50:29.986Z,100757.34
2023-04-10T19:52:58.116Z,100746.84
2023-04-10T19:55:26.482Z,100740.63
2023-04-10T19:57:54.668Z,100744.69
2023-04-10T20:00:26.151Z,100744.84
2023-04-10T20:02:55.788Z,100747.59
2023-04-10T20:05:23.907Z,100735.03
2023-04-10T20:07:51.726Z,100725.06
2023-04-10T20:10:19.686Z,100714.22
2023-04-10T20:12:47.483Z,100726.19
2023-04-10T20:15:15.555Z,100722.47
2023-04-10T22:21:44.475Z,100628.38
2023-04-10T22:24:13.759Z,100620.69
2023-04-10T22:26:45.856Z,100610.44
2023-04-10T22:29:14.568Z,100594.97
2023-04-10T22:31:42.404Z,100584.56
2023-04-10T22:34:10.403Z,100587.16
2023-04-10T22:36:38.457Z,100576.00
2023-04-10T22:39:06.303Z,100570.53
2023-04-10T22:41:35.574Z,100567.50
2023-04-10T22:44:03.493Z,100554.78
2023-04-10T22:46:31.380Z,100567.63
2023-04-10T22:48:59.512Z,100573.13
2023-04-10T22:51:27.798Z,100582.06
2023-04-10T22:53:55.633Z,100602.31
2023-04-10T22:56:26.545Z,100608.66
2023-04-10T22:58:56.110Z,100606.63
2023-04-10T23:01:24.160Z,100592.19
2023-04-10T23:03:54.001Z,100581.22
2023-04-10T23:06:21.935Z,100594.78
2023-04-10T23:08:49.723Z,100612.25
2023-04-10T23:11:17.542Z,100603.16
2023-04-10T23:13:45.629Z,100610.53
2023-04-10T23:16:14.928Z,100596.81
2023-04-10T23:18:42.766Z,100582.56
2023-04-10T23:21:10.606Z,100574.13
2023-04-10T23:23:38.521Z,100590.78
2023-04-10T23:26:06.937Z,100599.84
2023-04-10T23:28:34.833Z,100611.00
2023-04-10T23:31:02.663Z,100607.41
2023-04-10T23:33:32.018Z,100607.41
2023-04-10T23:36:00.235Z,100607.53
2023-04-10T23:38:28.113Z,100591.06
2023-04-10T23:40:56.047Z,100592.94
2023-04-10T23:43:24.057Z,100602.19
2023-04-10T23:45:51.877Z,100604.22
2023-04-10T23:48:19.788Z,100598.72
2023-04-10T23:50:49.057Z,100589.81
2023-04-10T23:53:16.830Z,100590.81
2023-04-10T23:55:44.815Z,100594.59
2023-04-10T23:58:12.687Z,100596.47
